D/T METAR WX W/DIR W/SPE G/SPE TEMP DEWP
19/01/20 08:50 EGXZ 190850Z AUTO 31003KT 9999 NCD M05/M06 Q1044 NW (310°) 3.5mph -5°C -6°C
19/01/20 07:50 EGXZ 190750Z AUTO 03002KT 8000 NCD M05/M05 Q1043 NNE (30°) 2.3mph -5°C -5°C
19/01/20 06:50 EGXZ 190650Z AUTO 04004KT 9999 NCD M04/M05 Q1042 NE (40°) 4.6mph -4°C -5°C
19/01/20 05:50 EGXZ 190550Z AUTO 28003KT 9999 NCD M06/M07 Q1041 W (280°) 3.5mph -6°C -7°C
19/01/20 04:50 EGXZ 190450Z AUTO 20001KT 9999 NCD M04/M05 Q1040 SSW (200°) 1.2mph -4°C -5°C
19/01/20 03:50 EGXZ 190350Z AUTO 04004KT 9999 NCD M02/M02 Q1039 NE (40°) 4.6mph -2°C -2°C
19/01/20 02:50 EGXZ 190250Z AUTO 09001KT 5000 NCD M05/M05 Q1039 E (90°) 1.2mph -5°C -5°C
19/01/20 01:50 EGXZ 190150Z AUTO 15002KT 3100 FEW002/// M05/M05 Q1038 SSE (150°) 2.3mph -5°C -5°C
19/01/20 00:50 EGXZ 190050Z AUTO 15001KT 9999 NCD M02/M02 Q1037 SSE (150°) 1.2mph -2°C -2°C
18/01/20 23:50 EGXZ 182350Z AUTO 14005KT 9999 NCD M02/M02 Q1036 SE (140°) 5.8mph -2°C -2°C
18/01/20 22:50 EGXZ 182250Z AUTO 01002KT 9999 NCD M01/M02 Q1035 N (10°) 2.3mph -1°C -2°C
18/01/20 21:50 EGXZ 182150Z AUTO 18002KT 9999 NCD M01/M02 Q1034 S (180°) 2.3mph -1°C -2°C
18/01/20 20:50 EGXZ 182050Z AUTO 35005KT 9999 SCT120/// 03/00 Q1033 N (350°) 5.8mph 3°C 0°C
18/01/20 19:50 EGXZ 181950Z AUTO 32008KT 9999 SCT130/// 04/01 Q1033 NW (320°) 9.2mph 4°C 1°C
18/01/20 18:50 EGXZ 181850Z AUTO 31011KT 9999 FEW140/// 04/01 Q1031 NW (310°) 12.7mph 4°C 1°C
18/01/20 17:50 EGXZ 181750Z AUTO 31009KT 9999 BKN130/// 05/01 Q1030 NW (310°) 10.4mph 5°C 1°C
18/01/20 16:50 EGXZ 181650Z AUTO 31012KT 9999 BKN140/// 05/01 Q1029 NW (310°) 13.8mph 5°C 1°C
18/01/20 15:50 EGXZ 181550Z AUTO 30011KT 9999 NCD 06/01 Q1028 WNW (300°) 12.7mph 6°C 1°C
18/01/20 14:50 EGXZ 181450Z AUTO 31015KT 9999 NCD 07/00 Q1027 NW (310°) 17.3mph 7°C 0°C
18/01/20 13:50 EGXZ 181350Z AUTO 30015KT 9999 NCD 07/01 Q1026 WNW (300°) 17.3mph 7°C 1°C
18/01/20 12:50 EGXZ 181250Z AUTO 29010KT 9999 NCD 07/01 Q1026 WNW (290°) 11.5mph 7°C 1°C
18/01/20 11:50 EGXZ 181150Z AUTO 30011KT 9999 NCD 06/01 Q1025 WNW (300°) 12.7mph 6°C 1°C
18/01/20 10:50 EGXZ 181050Z AUTO 30009KT 9999 NCD 05/00 Q1025 WNW (300°) 10.4mph 5°C 0°C
18/01/20 09:50 EGXZ 180950Z AUTO 29005KT 9999 NCD 04/M00 Q1024 WNW (290°) 5.8mph 4°C 0°C
18/01/20 08:50 EGXZ 180850Z AUTO 30002KT 9999 NCD 01/M03 Q1023 WNW (300°) 2.3mph 1°C -3°C
18/01/20 07:50 EGXZ 180750Z AUTO 34002KT 9999 NCD 01/M01 Q1022 NNW (340°) 2.3mph 1°C -1°C
18/01/20 06:50 EGXZ 180650Z AUTO 28004KT 9999 NCD 03/M01 Q1021 W (280°) 4.6mph 3°C -1°C
18/01/20 05:50 EGXZ 180550Z AUTO 29009KT 9999 NCD 04/M01 Q1020 WNW (290°) 10.4mph 4°C -1°C
18/01/20 04:50 EGXZ 180450Z AUTO 30007KT 9999 NCD 03/M00 Q1019 WNW (300°) 8.1mph 3°C 0°C
18/01/20 03:50 EGXZ 180350Z AUTO 28005KT 9999 NCD 03/00 Q1018 W (280°) 5.8mph 3°C 0°C
18/01/20 02:50 EGXZ 180250Z AUTO 25002KT 9999 NCD 03/M00 Q1018 WSW (250°) 2.3mph 3°C 0°C
18/01/20 01:50 EGXZ 180150Z AUTO 26009KT 9999 NCD 04/00 Q1017 W (260°) 10.4mph 4°C 0°C
18/01/20 00:50 EGXZ 180050Z AUTO 27012KT 9999 BKN080/// 05/01 Q1016 W (270°) 13.8mph 5°C 1°C
17/01/20 23:50 EGXZ 172350Z AUTO 28013KT 9999 SCT090/// BKN130/// 05/01 Q1015 W (280°) 15.0mph 5°C 1°C
17/01/20 22:50 EGXZ 172250Z AUTO 27007KT 9999 SCT090/// BKN130/// 05/02 Q1014 W (270°) 8.1mph 5°C 2°C
17/01/20 21:50 EGXZ 172150Z AUTO 25008KT 9999 OVC100/// 05/02 Q1013 WSW (250°) 9.2mph 5°C 2°C
17/01/20 20:50 EGXZ 172050Z AUTO 27007KT 9999 BKN050/// 05/02 Q1012 W (270°) 8.1mph 5°C 2°C
17/01/20 19:50 EGXZ 171950Z AUTO 27011KT 9999 FEW025/// BKN060/// 06/02 Q1012 W (270°) 12.7mph 6°C 2°C
17/01/20 18:50 EGXZ 171850Z AUTO 25009KT 9999 FEW026/// BKN140/// 06/02 Q1011 WSW (250°) 10.4mph 6°C 2°C
17/01/20 17:50 EGXZ 171750Z AUTO 25007KT 9999 OVC130/// 06/02 Q1010 WSW (250°) 8.1mph 6°C 2°C
17/01/20 16:50 EGXZ 171650Z AUTO 24006KT 9999 SCT110/// 05/02 Q1009 WSW (240°) 6.9mph 5°C 2°C
17/01/20 15:50 EGXZ 171550Z AUTO 27008KT 9999 OVC100/// 06/02 Q1009 W (270°) 9.2mph 6°C 2°C
17/01/20 14:50 EGXZ 171450Z AUTO 27009KT 9999 FEW050/// OVC090/// 06/02 Q1008 W (270°) 10.4mph 6°C 2°C
17/01/20 13:50 EGXZ 171350Z AUTO 28008KT 9999 OVC049/// 06/03 Q1007 RERA W (280°) 9.2mph 6°C 3°C
17/01/20 12:50 EGXZ 171250Z AUTO 30006KT 9999 BKN050/// 05/03 Q1007 RERA WNW (300°) 6.9mph 5°C 3°C
17/01/20 11:50 EGXZ 171150Z AUTO 30014KT 9999 -RA SCT028/// BKN047/// 05/03 Q1006 -RA WNW (300°) 16.1mph 5°C 3°C
17/01/20 10:50 EGXZ 171050Z AUTO 32010KT 9999 FEW017/// BKN021/// 05/05 Q1006 RERA NW (320°) 11.5mph 5°C 5°C
17/01/20 09:50 EGXZ 170950Z AUTO 14003KT 7000 -RA BKN028/// 06/06 Q1005 -RA SE (140°) 3.5mph 6°C 6°C